Time;durP1;ratioP1;P1;durP2;ratioP2;P2;SDS_P1;SDS_P2;PMS_P1;PMS_P2;Temp;Humidity;BMP_temperature;BMP_pressure;BME280_temperature;BME280_humidity;BME280_pressure;Samples;Min_cycle;Max_cycle;Signal;HPM_P1;HPM_P2
2024/01/13 00:02:26;;;;;;;12.10;11.70;;;20.80;42.60;;;;;;5011958;28;20477;-71
2024/01/13 00:04:52;;;;;;;12.60;12.10;;;20.80;42.60;;;;;;5011796;28;20875;-71
2024/01/13 00:07:19;;;;;;;11.70;11.20;;;20.70;42.60;;;;;;5005929;28;20517;-71
2024/01/13 00:09:46;;;;;;;12.10;11.60;;;20.70;42.60;;;;;;5009457;28;20488;-71
2024/01/13 00:12:13;;;;;;;12.43;11.53;;;20.70;42.70;;;;;;5011857;28;20477;-71
2024/01/13 00:14:40;;;;;;;12.00;11.50;;;20.70;42.70;;;;;;5011534;28;21004;-71
2024/01/13 00:17:07;;;;;;;12.00;11.40;;;20.70;42.70;;;;;;5005423;28;20958;-72
2024/01/13 00:19:35;;;;;;;12.13;11.53;;;20.70;42.70;;;;;;5011740;28;20446;-71
2024/01/13 00:22:02;;;;;;;11.13;10.77;;;20.70;42.80;;;;;;5011609;28;20477;-71
2024/01/13 00:24:29;;;;;;;11.90;11.30;;;20.70;42.80;;;;;;5011621;28;20489;-71
2024/01/13 00:26:56;;;;;;;12.43;11.93;;;20.60;42.70;;;;;;5005503;28;20482;-71
2024/01/13 00:29:23;;;;;;;11.40;10.90;;;20.60;43.30;;;;;;5011764;28;20489;-71
2024/01/13 00:31:50;;;;;;;13.17;12.67;;;20.60;42.80;;;;;;5011400;28;20449;-71
2024/01/13 00:34:17;;;;;;;12.73;12.23;;;20.60;42.70;;;;;;5015503;28;20490;-72
2024/01/13 00:36:45;;;;;;;11.47;11.07;;;20.60;42.80;;;;;;5003930;28;20490;-72
2024/01/13 00:39:12;;;;;;;12.37;11.77;;;20.60;42.80;;;;;;5015517;28;20508;-72
2024/01/13 00:41:39;;;;;;;12.03;11.57;;;20.60;42.90;;;;;;5015416;28;20497;-71
2024/01/13 00:44:06;;;;;;;12.40;11.80;;;20.60;42.90;;;;;;4999563;28;20470;-71
2024/01/13 00:46:33;;;;;;;11.57;11.17;;;20.60;42.90;;;;;;5010323;28;20446;-71
2024/01/13 00:49:00;;;;;;;11.43;10.93;;;20.50;42.80;;;;;;5015220;28;20477;-71
2024/01/13 00:51:27;;;;;;;11.70;11.20;;;20.50;42.80;;;;;;5015070;28;20512;-71
2024/01/13 00:53:55;;;;;;;12.03;11.57;;;20.50;42.90;;;;;;5013077;28;20478;-71
2024/01/13 00:56:22;;;;;;;12.10;11.50;;;20.50;42.80;;;;;;5015007;28;20477;-71
2024/01/13 00:58:49;;;;;;;12.73;12.23;;;20.50;42.80;;;;;;5014865;28;20509;-71
2024/01/13 01:01:16;;;;;;;12.07;11.57;;;20.50;42.90;;;;;;5015058;28;20473;-71
2024/01/13 01:03:43;;;;;;;12.70;12.20;;;20.50;42.90;;;;;;5013008;28;21028;-71
2024/01/13 01:06:10;;;;;;;12.70;12.20;;;20.50;42.90;;;;;;5014873;28;20470;-72
2024/01/13 01:08:37;;;;;;;13.17;12.37;;;20.50;42.90;;;;;;5014845;28;20570;-71
2024/01/13 01:11:06;;;;;;;11.73;11.23;;;20.50;42.90;;;;;;5014707;28;20496;-71
2024/01/13 01:13:33;;;;;;;11.60;11.10;;;20.50;42.90;;;;;;5014771;28;20508;-71
2024/01/13 01:15:59;;;;;;;11.90;11.50;;;20.50;42.90;;;;;;5013276;28;20496;-71
2024/01/13 01:18:26;;;;;;;13.27;12.60;;;20.50;43.00;;;;;;5014667;28;20485;-71
2024/01/13 01:20:53;;;;;;;12.40;11.80;;;20.40;42.90;;;;;;5014549;28;20930;-71
2024/01/13 01:23:20;;;;;;;11.50;11.07;;;20.40;42.90;;;;;;5007717;28;20442;-71
2024/01/13 01:25:47;;;;;;;12.23;11.83;;;20.40;43.00;;;;;;5014399;28;20473;-71
2024/01/13 01:28:15;;;;;;;12.27;11.77;;;20.40;42.90;;;;;;5014509;28;20497;-71
2024/01/13 01:30:42;;;;;;;13.40;12.80;;;20.40;43.00;;;;;;5014349;28;20500;-72
2024/01/13 01:33:09;;;;;;;11.43;10.93;;;20.40;43.00;;;;;;5007689;28;20474;-71
2024/01/13 01:35:36;;;;;;;11.70;11.10;;;20.40;43.10;;;;;;5014488;28;20478;-72
2024/01/13 01:38:03;;;;;;;11.43;11.03;;;20.40;43.10;;;;;;5014279;28;20552;-71
2024/01/13 01:40:32;;;;;;;11.70;11.20;;;20.40;43.00;;;;;;5014278;28;20470;-71
2024/01/13 01:42:59;;;;;;;11.17;10.77;;;20.40;43.10;;;;;;5007544;28;21004;-71
2024/01/13 01:45:27;;;;;;;11.40;10.93;;;20.40;43.10;;;;;;5002532;28;20474;-71
2024/01/13 01:47:55;;;;;;;11.40;10.90;;;20.40;43.00;;;;;;5007151;28;20498;-71
2024/01/13 01:50:22;;;;;;;11.30;10.80;;;20.40;43.20;;;;;;5014135;28;20496;-71
2024/01/13 01:52:49;;;;;;;12.00;11.40;;;20.40;43.20;;;;;;5007641;28;20478;-71
2024/01/13 01:55:16;;;;;;;15.50;14.90;;;20.40;43.20;;;;;;5014182;28;20883;-71
2024/01/13 01:57:43;;;;;;;11.70;11.10;;;20.40;43.20;;;;;;5013827;28;20485;-71
2024/01/13 02:00:11;;;;;;;11.27;10.80;;;20.40;43.20;;;;;;5013912;28;20477;-71
2024/01/13 02:02:40;;;;;;;11.83;11.33;;;20.40;43.20;;;;;;5008557;28;20924;-71
2024/01/13 02:05:08;;;;;;;10.87;10.47;;;20.40;43.20;;;;;;5013507;28;20474;-71
2024/01/13 02:07:35;;;;;;;11.90;11.40;;;20.40;43.20;;;;;;5013790;28;20469;-71
2024/01/13 02:10:03;;;;;;;12.30;11.80;;;20.40;43.30;;;;;;5013721;28;20438;-71
2024/01/13 02:12:30;;;;;;;11.93;11.43;;;20.40;43.30;;;;;;5009520;28;20446;-71
2024/01/13 02:14:57;;;;;;;12.40;11.80;;;20.30;43.20;;;;;;5005643;28;20447;-71
2024/01/13 02:17:24;;;;;;;12.30;11.70;;;20.30;43.20;;;;;;5013603;28;20466;-71
2024/01/13 02:19:52;;;;;;;11.53;11.03;;;20.30;43.30;;;;;;5013333;28;20593;-71
2024/01/13 02:22:21;;;;;;;11.10;10.60;;;20.30;43.30;;;;;;5011113;28;20441;-71
2024/01/13 02:24:48;;;;;;;11.00;10.60;;;20.30;43.20;;;;;;5010598;28;20870;-71
2024/01/13 02:27:15;;;;;;;10.20;9.90;;;20.30;43.30;;;;;;5013362;28;20515;-71
2024/01/13 02:29:41;;;;;;;11.10;10.60;;;20.30;43.30;;;;;;5013310;28;20470;-71
2024/01/13 02:32:08;;;;;;;11.40;10.90;;;20.30;43.30;;;;;;5013113;28;20473;-71
2024/01/13 02:34:35;;;;;;;11.40;11.00;;;20.30;43.20;;;;;;5008323;28;20860;-71
2024/01/13 02:37:02;;;;;;;11.10;10.60;;;20.30;43.30;;;;;;5006527;28;20505;-71
2024/01/13 02:39:30;;;;;;;11.30;10.83;;;20.30;43.30;;;;;;5013067;28;20478;-71
2024/01/13 02:41:57;;;;;;;11.70;11.10;;;20.30;43.40;;;;;;5012849;28;20473;-71
2024/01/13 02:44:24;;;;;;;11.07;10.57;;;20.30;43.30;;;;;;5008118;28;21290;-71
2024/01/13 02:46:51;;;;;;;11.43;10.93;;;20.30;43.30;;;;;;5012771;28;20920;-71
2024/01/13 02:49:18;;;;;;;11.63;11.20;;;20.30;43.30;;;;;;5013061;28;20474;-71
2024/01/13 02:51:45;;;;;;;11.30;10.90;;;20.30;43.30;;;;;;5012879;28;21016;-71
2024/01/13 02:54:12;;;;;;;11.53;11.10;;;20.30;43.40;;;;;;5008034;28;20453;-71
2024/01/13 02:56:40;;;;;;;11.70;11.30;;;20.30;43.40;;;;;;5012234;28;20501;-71
2024/01/13 02:59:07;;;;;;;12.03;11.53;;;20.30;43.30;;;;;;5012678;28;20520;-71
2024/01/13 03:01:35;;;;;;;11.47;10.93;;;20.30;43.90;;;;;;5010589;28;20446;-71
2024/01/13 03:04:02;;;;;;;11.00;10.30;;;20.30;43.40;;;;;;5012761;28;20446;-71
2024/01/13 03:06:29;;;;;;;12.80;12.30;;;20.30;43.50;;;;;;5012718;28;20442;-71
2024/01/13 03:08:56;;;;;;;11.90;11.30;;;20.30;43.50;;;;;;5012605;28;20477;-71
2024/01/13 03:11:23;;;;;;;11.80;11.40;;;20.30;43.40;;;;;;5010512;28;20473;-71
2024/01/13 03:13:51;;;;;;;11.37;10.97;;;20.20;43.40;;;;;;5012504;28;20438;-71
2024/01/13 03:16:18;;;;;;;10.87;10.47;;;20.30;43.50;;;;;;5012507;28;20443;-71
2024/01/13 03:18:45;;;;;;;11.67;11.27;;;20.30;43.40;;;;;;5012452;28;20509;-71
2024/01/13 03:21:13;;;;;;;11.50;11.00;;;20.20;43.40;;;;;;4994945;28;20448;-71
2024/01/13 03:23:40;;;;;;;12.23;11.77;;;20.30;43.50;;;;;;5012382;28;20454;-71
2024/01/13 03:26:06;;;;;;;10.90;10.50;;;20.20;43.40;;;;;;5012262;28;20841;-71
2024/01/13 03:28:33;;;;;;;11.00;10.70;;;20.30;43.50;;;;;;5012252;28;20489;-71
2024/01/13 03:31:02;;;;;;;10.70;10.40;;;20.30;43.50;;;;;;5005125;28;20446;-71
2024/01/13 03:33:29;;;;;;;12.10;11.60;;;20.30;43.60;;;;;;5012525;28;20485;-71
2024/01/13 03:35:56;;;;;;;11.77;11.27;;;20.30;43.60;;;;;;5012163;28;20592;-71
2024/01/13 03:38:25;;;;;;;11.60;11.00;;;20.30;43.60;;;;;;5012026;28;20509;-71
2024/01/13 03:40:51;;;;;;;11.83;11.33;;;20.30;43.60;;;;;;5005205;28;20538;-71
2024/01/13 03:43:18;;;;;;;11.40;10.90;;;20.30;43.60;;;;;;5012323;28;20477;-71
2024/01/13 03:45:45;;;;;;;11.07;10.67;;;20.30;43.60;;;;;;5012176;28;20532;-71
2024/01/13 03:48:14;;;;;;;11.70;11.20;;;20.30;43.60;;;;;;4995757;28;20497;-71
2024/01/13 03:50:40;;;;;;;11.40;10.90;;;20.30;43.60;;;;;;5005261;28;20949;-71
2024/01/13 03:53:07;;;;;;;10.57;10.17;;;20.20;43.50;;;;;;5011882;28;20874;-71
2024/01/13 03:55:34;;;;;;;11.07;10.67;;;20.30;43.60;;;;;;5011851;28;20443;-71
2024/01/13 03:58:01;;;;;;;11.90;11.50;;;20.20;43.50;;;;;;5011600;28;20505;-71
2024/01/13 04:00:29;;;;;;;11.40;10.80;;;20.30;43.60;;;;;;5005439;28;20937;-71
2024/01/13 04:02:56;;;;;;;12.37;11.87;;;20.20;43.50;;;;;;5011655;28;20536;-71
2024/01/13 04:05:25;;;;;;;11.80;11.30;;;20.20;43.60;;;;;;5011795;28;20442;-71
2024/01/13 04:07:51;;;;;;;11.90;11.40;;;20.20;43.60;;;;;;5010583;28;20995;-71
2024/01/13 04:10:18;;;;;;;12.03;11.53;;;20.20;43.70;;;;;;5005379;28;20885;-71
2024/01/13 04:12:46;;;;;;;12.20;11.70;;;20.20;43.70;;;;;;5008611;28;20447;-71
2024/01/13 04:15:13;;;;;;;11.10;10.70;;;20.20;43.70;;;;;;5011498;28;20518;-71
2024/01/13 04:17:40;;;;;;;11.07;10.50;;;20.20;43.70;;;;;;5007098;28;20517;-71
2024/01/13 04:20:08;;;;;;;12.23;11.63;;;20.20;43.70;;;;;;5011553;28;20564;-71
2024/01/13 04:22:36;;;;;;;11.20;10.80;;;20.20;43.60;;;;;;5011793;28;20470;-71
2024/01/13 04:25:03;;;;;;;11.03;10.63;;;20.20;43.60;;;;;;5011413;28;20945;-71
2024/01/13 04:27:30;;;;;;;11.57;11.17;;;20.20;43.60;;;;;;5009898;28;20953;-71
2024/01/13 04:29:57;;;;;;;12.40;11.67;;;20.20;43.60;;;;;;5011529;28;20466;-71
2024/01/13 04:32:24;;;;;;;12.07;11.57;;;20.20;43.70;;;;;;5011684;28;20469;-71
2024/01/13 04:34:50;;;;;;;11.17;10.77;;;20.20;43.60;;;;;;5004590;28;21264;-71
2024/01/13 04:37:17;;;;;;;13.07;12.57;;;20.20;43.70;;;;;;5011377;28;20935;-71
2024/01/13 04:39:46;;;;;;;11.27;10.83;;;20.20;43.70;;;;;;5011527;28;20505;-71
2024/01/13 04:42:13;;;;;;;11.37;10.90;;;20.20;43.70;;;;;;5011404;28;20847;-71
2024/01/13 04:44:39;;;;;;;12.23;11.70;;;20.20;43.70;;;;;;5006134;28;20862;-71
2024/01/13 04:47:06;;;;;;;11.60;11.10;;;20.20;43.70;;;;;;5010093;28;20528;-71
2024/01/13 04:49:33;;;;;;;11.43;11.03;;;20.20;43.80;;;;;;5011534;28;20469;-71
2024/01/13 04:52:00;;;;;;;11.50;11.10;;;20.20;43.90;;;;;;5011496;28;20570;-71
2024/01/13 04:54:27;;;;;;;11.13;10.60;;;20.20;43.90;;;;;;5008016;28;20478;-71
2024/01/13 04:56:55;;;;;;;11.40;11.00;;;20.20;43.90;;;;;;5008258;28;20504;-71
2024/01/13 04:59:22;;;;;;;11.30;10.90;;;20.20;43.80;;;;;;5008240;28;20510;-71
2024/01/13 05:01:49;;;;;;;11.90;11.47;;;20.20;43.90;;;;;;5011273;28;20507;-71
2024/01/13 05:04:16;;;;;;;11.53;11.07;;;20.20;43.80;;;;;;4993786;28;20477;-71
2024/01/13 05:06:43;;;;;;;11.70;11.20;;;20.20;43.80;;;;;;5006814;28;20555;-71
2024/01/13 05:09:10;;;;;;;13.03;12.03;;;20.20;43.90;;;;;;5011218;28;20476;-71
2024/01/13 05:11:37;;;;;;;12.33;11.83;;;20.20;43.80;;;;;;5011215;28;20437;-71
2024/01/13 05:14:05;;;;;;;12.20;11.70;;;20.20;43.80;;;;;;5011018;28;20470;-71
2024/01/13 05:16:32;;;;;;;12.63;12.10;;;20.20;43.90;;;;;;5005120;28;20449;-71
2024/01/13 05:18:59;;;;;;;13.10;12.23;;;20.20;43.90;;;;;;5012725;28;20573;-71
2024/01/13 05:21:26;;;;;;;12.10;11.70;;;20.20;43.80;;;;;;5014679;28;20474;-71
2024/01/13 05:23:53;;;;;;;12.57;12.07;;;20.20;43.80;;;;;;5014544;28;20469;-71
2024/01/13 05:26:19;;;;;;;12.90;12.50;;;20.20;43.90;;;;;;5008722;28;20470;-71
2024/01/13 05:28:46;;;;;;;12.83;12.43;;;20.20;43.90;;;;;;5014656;28;20477;-71
2024/01/13 05:31:15;;;;;;;13.67;13.07;;;20.20;43.90;;;;;;5014487;28;20481;-71
2024/01/13 05:33:42;;;;;;;12.83;12.30;;;20.20;43.90;;;;;;5014455;28;20468;-71
2024/01/13 05:36:09;;;;;;;13.70;13.27;;;20.20;43.90;;;;;;5008766;28;20957;-71
2024/01/13 05:38:36;;;;;;;12.57;12.07;;;20.20;43.90;;;;;;5014158;28;20556;-71
2024/01/13 05:41:03;;;;;;;12.93;12.43;;;20.20;44.00;;;;;;5014176;28;20969;-71
2024/01/13 05:43:30;;;;;;;13.33;12.80;;;20.20;43.90;;;;;;5011602;28;20857;-71
2024/01/13 05:45:57;;;;;;;12.50;12.00;;;20.20;43.90;;;;;;5014024;28;20478;-71
2024/01/13 05:48:25;;;;;;;15.07;14.57;;;20.20;43.90;;;;;;5014260;28;20494;-71
2024/01/13 05:50:52;;;;;;;13.83;13.33;;;20.20;44.00;;;;;;5014084;28;20485;-70
2024/01/13 05:53:19;;;;;;;14.17;13.67;;;20.20;43.90;;;;;;5011420;28;20488;-72
2024/01/13 05:55:46;;;;;;;13.80;13.40;;;20.20;43.90;;;;;;5011653;28;20470;-71
2024/01/13 05:58:13;;;;;;;13.20;12.70;;;20.20;43.90;;;;;;5014005;28;20520;-72
2024/01/13 06:00:40;;;;;;;12.60;12.00;;;20.20;43.90;;;;;;5013802;28;20516;-72
2024/01/13 06:03:07;;;;;;;12.80;12.30;;;20.20;43.80;;;;;;5011306;28;20467;-72
2024/01/13 06:05:35;;;;;;;12.73;12.33;;;20.20;43.90;;;;;;5013802;28;20474;-72
2024/01/13 06:08:02;;;;;;;12.40;12.00;;;20.20;43.80;;;;;;5013851;28;20868;-71
2024/01/13 06:10:30;;;;;;;12.53;11.93;;;20.20;43.90;;;;;;5013769;28;20477;-71
2024/01/13 06:12:59;;;;;;;12.80;12.30;;;20.20;43.90;;;;;;5011424;28;20438;-71
2024/01/13 06:15:26;;;;;;;13.10;12.60;;;20.20;43.90;;;;;;5013746;28;20532;-71
2024/01/13 06:17:53;;;;;;;12.90;12.40;;;20.20;43.90;;;;;;5013675;28;20501;-71
2024/01/13 06:20:20;;;;;;;13.30;12.70;;;20.20;44.00;;;;;;4997768;28;21053;-71
2024/01/13 06:22:48;;;;;;;13.13;12.63;;;20.20;43.90;;;;;;5012795;28;20560;-72
2024/01/13 06:25:15;;;;;;;12.97;12.57;;;20.20;44.00;;;;;;5012543;28;20469;-72
2024/01/13 06:27:42;;;;;;;12.47;11.97;;;20.20;44.00;;;;;;5013510;28;20489;-71
2024/01/13 06:30:10;;;;;;;11.60;11.20;;;20.20;44.00;;;;;;5012382;28;20477;-72
2024/01/13 06:32:37;;;;;;;12.87;12.40;;;20.20;44.00;;;;;;5013289;28;20454;-72
2024/01/13 06:35:05;;;;;;;12.50;12.00;;;20.20;44.00;;;;;;5011523;28;20525;-72
2024/01/13 06:37:32;;;;;;;13.10;12.60;;;20.20;44.00;;;;;;5013293;28;20501;-72
2024/01/13 06:40:00;;;;;;;13.57;12.87;;;20.20;44.20;;;;;;5012986;28;20506;-71
2024/01/13 06:42:28;;;;;;;11.73;11.33;;;20.20;44.10;;;;;;5013069;28;20449;-72
2024/01/13 06:44:55;;;;;;;12.00;11.50;;;20.20;43.90;;;;;;5011601;28;20445;-72
2024/01/13 06:47:22;;;;;;;12.90;12.10;;;20.20;43.80;;;;;;5012862;28;20500;-71
2024/01/13 06:49:49;;;;;;;12.47;11.80;;;20.20;43.90;;;;;;5012936;28;20434;-71
2024/01/13 06:52:16;;;;;;;12.70;12.00;;;20.20;44.00;;;;;;5006116;28;20476;-72
2024/01/13 06:54:43;;;;;;;13.03;12.30;;;20.20;44.20;;;;;;5013173;28;20500;-72
2024/01/13 06:57:11;;;;;;;12.90;12.20;;;20.30;44.50;;;;;;5012843;28;20470;-71
2024/01/13 06:59:38;;;;;;;14.03;13.20;;;20.20;44.70;;;;;;5012744;28;20478;-71
2024/01/13 07:02:05;;;;;;;14.07;12.90;;;20.20;45.10;;;;;;5006013;28;20490;-71
2024/01/13 07:04:31;;;;;;;14.43;13.43;;;20.30;45.30;;;;;;5012831;28;20860;-71
2024/01/13 07:06:58;;;;;;;14.07;13.13;;;20.30;46.00;;;;;;5012656;28;20513;-72
2024/01/13 07:09:25;;;;;;;13.23;11.48;;;20.30;46.50;;;;;;5012031;28;20438;-74
2024/01/13 07:11:53;;;;;;;14.80;13.77;;;20.30;47.50;;;;;;5006125;28;20226;-73
2024/01/13 07:14:21;;;;;;;14.40;11.93;;;20.40;48.00;;;;;;4992253;28;20438;-71
2024/01/13 07:16:48;;;;;;;12.93;11.90;;;20.40;49.20;;;;;;5012485;28;20490;-72
2024/01/13 07:19:15;;;;;;;16.77;15.27;;;20.50;48.80;;;;;;5012250;28;20478;-72
2024/01/13 07:21:43;;;;;;;17.77;16.07;;;20.50;48.90;;;;;;5012419;28;20450;-72
2024/01/13 07:24:11;;;;;;;13.80;12.67;;;20.40;48.70;;;;;;5012332;28;20469;-72
2024/01/13 07:26:39;;;;;;;15.00;13.40;;;20.40;48.50;;;;;;5012506;28;20963;-72
2024/01/13 07:29:06;;;;;;;15.07;13.37;;;20.40;48.40;;;;;;5012203;28;20481;-72
2024/01/13 07:31:34;;;;;;;12.80;12.10;;;20.40;48.10;;;;;;5012175;28;20441;-72
2024/01/13 07:34:01;;;;;;;13.83;12.73;;;20.40;47.90;;;;;;5012024;28;20501;-72
2024/01/13 07:36:28;;;;;;;13.70;12.70;;;20.40;47.60;;;;;;5012056;28;20844;-72
2024/01/13 07:38:55;;;;;;;14.47;13.30;;;20.40;47.40;;;;;;5012277;28;20477;-72
2024/01/13 07:41:22;;;;;;;14.67;13.60;;;20.40;47.20;;;;;;4995750;28;20513;-72
2024/01/13 07:43:49;;;;;;;14.63;13.70;;;20.40;47.00;;;;;;5012022;28;20476;-72
2024/01/13 07:46:16;;;;;;;13.67;12.90;;;20.40;46.80;;;;;;5011956;28;20489;-72
2024/01/13 07:48:45;;;;;;;13.03;12.33;;;20.40;46.70;;;;;;5011676;28;20537;-72
2024/01/13 07:51:11;;;;;;;15.07;13.97;;;20.40;46.50;;;;;;5011657;28;20478;-72
2024/01/13 07:53:38;;;;;;;14.97;13.63;;;20.40;46.30;;;;;;5011836;28;21000;-72
2024/01/13 07:56:05;;;;;;;13.63;12.73;;;20.50;46.20;;;;;;5011675;28;20540;-72
2024/01/13 07:58:33;;;;;;;13.20;12.50;;;20.50;46.10;;;;;;5011760;28;20504;-72
2024/01/13 08:01:00;;;;;;;13.77;12.93;;;20.50;45.90;;;;;;5011426;28;21069;-73
2024/01/13 08:03:27;;;;;;;13.87;13.13;;;20.40;45.70;;;;;;5011716;28;20469;-72
2024/01/13 08:05:55;;;;;;;14.53;13.83;;;20.40;45.60;;;;;;5006710;28;20486;-73
2024/01/13 08:08:22;;;;;;;15.40;14.47;;;20.40;45.50;;;;;;4988138;28;20455;-73
2024/01/13 08:10:49;;;;;;;15.90;14.73;;;20.40;45.80;;;;;;5003936;28;20469;-72
2024/01/13 08:13:16;;;;;;;17.00;15.60;;;20.50;47.60;;;;;;5007861;28;20484;-72
2024/01/13 08:15:43;;;;;;;14.73;13.83;;;20.40;48.90;;;;;;5010941;28;20524;-70
2024/01/13 08:18:10;;;;;;;15.47;14.53;;;20.50;49.80;;;;;;5008230;28;20497;-70
2024/01/13 08:20:38;;;;;;;15.87;14.70;;;20.40;49.90;;;;;;5011684;28;20553;-70
2024/01/13 08:23:06;;;;;;;15.80;14.60;;;20.40;50.10;;;;;;5011678;28;20450;-70
2024/01/13 08:25:33;;;;;;;14.30;13.30;;;20.40;50.30;;;;;;5011618;28;20492;-70
2024/01/13 08:28:00;;;;;;;17.52;16.42;;;20.40;50.40;;;;;;4993547;28;20431;-76
2024/01/13 08:30:27;;;;;;;18.43;17.20;;;20.40;50.50;;;;;;5011798;28;20696;-73
2024/01/13 08:32:54;;;;;;;17.07;16.23;;;20.40;50.70;;;;;;5011488;28;20474;-72
2024/01/13 08:35:20;;;;;;;17.07;16.07;;;20.50;50.50;;;;;;5011440;28;20477;-74
2024/01/13 08:37:51;;;;;;;18.67;17.77;;;20.50;50.50;;;;;;5001625;28;20532;-71
2024/01/13 08:40:19;;;;;;;18.50;17.80;;;20.50;50.50;;;;;;5011288;28;20560;-69
2024/01/13 08:42:49;;;;;;;19.87;18.87;;;20.50;50.60;;;;;;5011394;28;20470;-69
2024/01/13 08:45:19;;;;;;;22.20;20.77;;;20.50;50.30;;;;;;5011292;28;20344;-72
2024/01/13 08:47:46;;;;;;;21.20;20.40;;;20.60;50.40;;;;;;4997750;28;20276;-70
2024/01/13 08:50:13;;;;;;;21.93;20.73;;;20.50;50.30;;;;;;5011379;28;20965;-70
2024/01/13 08:52:40;;;;;;;22.37;21.27;;;20.50;50.20;;;;;;5011399;28;20472;-71
2024/01/13 08:55:08;;;;;;;21.33;20.33;;;20.50;50.20;;;;;;5006970;28;20455;-69
2024/01/13 08:57:36;;;;;;;20.80;19.50;;;20.60;50.10;;;;;;5015105;28;20462;-67
2024/01/13 09:00:06;;;;;;;21.63;20.43;;;20.60;50.00;;;;;;5014836;28;20510;-67
2024/01/13 09:02:33;;;;;;;22.37;21.40;;;20.60;49.50;;;;;;5015036;28;20825;-68
2024/01/13 09:05:00;;;;;;;21.07;20.17;;;20.70;49.50;;;;;;5008934;28;20505;-67
2024/01/13 09:07:26;;;;;;;22.03;21.03;;;20.70;49.40;;;;;;4999206;28;20502;-68
2024/01/13 09:09:53;;;;;;;22.73;20.70;;;20.70;50.00;;;;;;5014926;28;20476;-69
2024/01/13 09:12:20;;;;;;;19.20;18.43;;;20.70;49.70;;;;;;5014774;28;20481;-74
2024/01/13 09:14:49;;;;;;;19.20;18.50;;;20.70;49.80;;;;;;5013236;28;20474;-72
2024/01/13 09:17:15;;;;;;;21.50;19.50;;;20.70;50.20;;;;;;5015081;28;21011;-76
2024/01/13 09:19:42;;;;;;;19.70;18.90;;;20.80;50.20;;;;;;5014741;28;20470;-71
2024/01/13 09:22:09;;;;;;;21.17;20.10;;;20.80;50.10;;;;;;5014602;28;20438;-75
2024/01/13 09:24:36;;;;;;;21.90;20.50;;;20.80;50.20;;;;;;4999210;28;20438;-69
2024/01/13 09:27:03;;;;;;;22.33;21.10;;;20.80;50.10;;;;;;5014449;28;20858;-71
2024/01/13 09:29:30;;;;;;;19.85;18.90;;;20.90;50.20;;;;;;5013512;28;20470;-71
2024/01/13 09:31:59;;;;;;;23.10;22.00;;;20.90;50.00;;;;;;5014435;28;20621;-72
2024/01/13 09:34:26;;;;;;;23.80;22.45;;;21.00;49.80;;;;;;5001925;28;20966;-73
2024/01/13 09:36:52;;;;;;;13.85;12.95;;;21.00;49.50;;;;;;5006660;28;20475;-73
2024/01/13 09:39:20;;;;;;;16.80;15.80;;;21.10;49.30;;;;;;5009956;28;20474;-74
2024/01/13 09:41:48;;;;;;;19.63;18.70;;;21.20;49.00;;;;;;5008586;28;20709;-75
2024/01/13 09:44:21;;;;;;;18.52;17.48;;;21.30;48.70;;;;;;5013747;28;20493;-73
2024/01/13 09:46:49;;;;;;;19.40;18.30;;;21.30;48.50;;;;;;5013951;28;20219;-76
2024/01/13 09:49:18;;;;;;;18.27;17.57;;;21.40;48.80;;;;;;5013900;28;20457;-76
2024/01/13 09:51:46;;;;;;;22.27;21.20;;;21.40;48.40;;;;;;5010097;28;20874;-71
2024/01/13 09:54:15;;;;;;;10.30;9.80;;;21.40;48.40;;;;;;5013888;28;20938;-69
2024/01/13 09:56:46;;;;;;;8.13;7.72;;;21.60;48.30;;;;;;5013305;28;20853;-68
2024/01/13 09:59:13;;;;;;;9.03;8.70;;;21.70;47.90;;;;;;5004853;28;20228;-69
2024/01/13 10:01:40;;;;;;;11.00;10.30;;;21.70;47.30;;;;;;5013604;28;20653;-72
2024/01/13 10:04:08;;;;;;;9.53;9.03;;;21.70;47.60;;;;;;5013589;28;20536;-70
2024/01/13 10:06:37;;;;;;;9.47;9.17;;;21.80;47.70;;;;;;5013847;28;20469;-72
2024/01/13 10:09:04;;;;;;;12.03;11.43;;;21.80;47.50;;;;;;5002376;28;20486;-70
2024/01/13 10:11:31;;;;;;;10.80;10.40;;;21.80;47.10;;;;;;5006083;28;20476;-70
2024/01/13 10:13:59;;;;;;;11.70;11.13;;;21.80;47.00;;;;;;5013762;28;20442;-69
2024/01/13 10:16:29;;;;;;;11.43;11.03;;;21.70;46.90;;;;;;5013395;28;20843;-69
2024/01/13 10:18:56;;;;;;;11.97;11.43;;;21.70;46.90;;;;;;5000338;28;20953;-69
2024/01/13 10:21:24;;;;;;;11.37;10.87;;;21.80;46.90;;;;;;5012493;28;20561;-68
2024/01/13 10:24:21;;;;;;;11.77;11.37;;;21.70;46.80;;;;;;5013480;28;20465;-67
2024/01/13 10:26:54;;;;;;;12.47;11.77;;;21.70;46.70;;;;;;5002401;28;20462;-69
2024/01/13 10:29:24;;;;;;;11.20;10.50;;;21.70;46.90;;;;;;5010251;28;20431;-67
2024/01/13 10:31:52;;;;;;;11.83;11.23;;;21.70;47.90;;;;;;5012802;28;21024;-68
2024/01/13 10:34:23;;;;;;;11.43;10.77;;;21.60;48.60;;;;;;5013361;28;20469;-69
2024/01/13 10:36:53;;;;;;;11.57;10.93;;;21.60;48.80;;;;;;5013211;28;20496;-71
2024/01/13 10:39:25;;;;;;;11.53;10.83;;;21.70;48.50;;;;;;5012779;28;20465;-69
2024/01/13 10:41:59;;;;;;;11.10;10.60;;;21.70;48.00;;;;;;5013120;28;20501;-70
2024/01/13 10:44:32;;;;;;;9.73;9.43;;;21.70;47.50;;;;;;5012906;28;20446;-71
2024/01/13 10:47:03;;;;;;;10.13;9.73;;;21.70;47.90;;;;;;5012611;28;20470;-68
2024/01/13 10:49:34;;;;;;;11.30;10.83;;;21.70;48.70;;;;;;4989837;28;21006;-67
2024/01/13 10:54:45;;;;;;;10.43;9.70;;;21.80;49.00;;;;;;5000529;28;20442;-68
2024/01/13 10:57:16;;;;;;;11.40;10.60;;;21.90;49.00;;;;;;5012645;28;20462;-70
2024/01/13 10:59:47;;;;;;;10.50;9.80;;;21.90;48.50;;;;;;5007516;28;20521;-68
2024/01/13 11:02:17;;;;;;;10.53;10.13;;;21.90;48.70;;;;;;5009287;28;20485;-69
2024/01/13 11:04:47;;;;;;;10.73;10.33;;;22.00;48.00;;;;;;5012354;28;20434;-68
2024/01/13 11:07:15;;;;;;;10.43;10.13;;;22.00;47.80;;;;;;5012659;28;20497;-68
2024/01/13 11:09:46;;;;;;;11.50;11.00;;;22.10;47.70;;;;;;5002941;28;20451;-68
2024/01/13 11:12:19;;;;;;;10.97;10.47;;;22.00;47.40;;;;;;5007822;28;20813;-68
2024/01/13 11:14:58;;;;;;;11.23;10.93;;;22.10;47.40;;;;;;5012524;28;20442;-70
2024/01/13 11:17:29;;;;;;;10.77;10.37;;;22.10;47.10;;;;;;5012124;28;23350;-68
2024/01/13 11:19:59;;;;;;;12.27;11.67;;;22.10;47.00;;;;;;5003193;28;20501;-68
2024/01/13 11:22:34;;;;;;;11.50;11.13;;;22.10;46.80;;;;;;5012247;28;20576;-67
2024/01/13 11:25:10;;;;;;;10.43;10.13;;;22.20;46.80;;;;;;5012087;28;20473;-69
2024/01/13 11:27:44;;;;;;;10.47;10.17;;;22.20;46.70;;;;;;4994356;28;20493;-69
2024/01/13 11:30:13;;;;;;;11.27;10.87;;;22.20;46.80;;;;;;5009297;28;20442;-70
2024/01/13 11:32:42;;;;;;;12.03;11.63;;;22.20;46.80;;;;;;5012259;28;20905;-69
2024/01/13 11:35:10;;;;;;;9.98;9.57;;;22.20;46.90;;;;;;5011161;28;21004;-68
2024/01/13 11:37:39;;;;;;;11.60;11.20;;;22.20;46.20;;;;;;5010446;28;20257;-70
2024/01/13 11:40:15;;;;;;;12.00;11.67;;;22.10;47.10;;;;;;5008527;28;20450;-69
2024/01/13 11:42:47;;;;;;;12.20;11.60;;;22.20;47.10;;;;;;4998709;28;20458;-69
2024/01/13 11:45:15;;;;;;;11.73;11.43;;;22.30;47.10;;;;;;5011405;28;20257;-69
2024/01/13 11:47:42;;;;;;;11.20;10.90;;;22.10;46.70;;;;;;5007644;28;20915;-73
2024/01/13 11:50:35;;;;;;;19.27;18.57;;;22.20;46.80;;;;;;5008873;28;20470;-69
2024/01/13 11:53:02;;;;;;;16.98;16.27;;;22.30;46.90;;;;;;5011781;28;20435;-70
2024/01/13 11:55:32;;;;;;;17.53;16.93;;;22.40;46.50;;;;;;5011838;28;20218;-72
2024/01/13 11:57:59;;;;;;;31.07;29.50;;;22.50;46.50;;;;;;5005728;28;20506;-73
2024/01/13 12:00:26;;;;;;;6.00;5.80;;;22.60;46.40;;;;;;5011128;28;20489;-68
2024/01/13 12:02:53;;;;;;;5.50;5.30;;;22.60;45.60;;;;;;5011943;28;20513;-66
2024/01/13 12:05:21;;;;;;;5.73;5.53;;;22.60;45.70;;;;;;5011929;28;20484;-68
2024/01/13 12:07:48;;;;;;;5.33;5.20;;;22.60;45.60;;;;;;5008263;28;20492;-65
2024/01/13 12:10:15;;;;;;;5.57;5.30;;;22.60;46.10;;;;;;5014305;28;20474;-69
2024/01/13 12:12:43;;;;;;;7.00;6.80;;;22.60;45.90;;;;;;5014145;28;20442;-67
2024/01/13 12:15:10;;;;;;;6.43;6.23;;;22.60;46.50;;;;;;5011611;28;20528;-67
2024/01/13 12:17:38;;;;;;;6.30;6.10;;;22.60;45.90;;;;;;5008278;28;20490;-68
2024/01/13 12:20:09;;;;;;;7.23;6.93;;;22.60;45.90;;;;;;5011935;28;20464;-66
2024/01/13 12:22:36;;;;;;;7.23;6.67;;;22.60;46.70;;;;;;4996405;28;20477;-67
2024/01/13 12:25:03;;;;;;;7.10;6.90;;;22.60;46.00;;;;;;5011725;28;20474;-68
2024/01/13 12:27:31;;;;;;;6.10;5.90;;;22.70;46.30;;;;;;5004923;28;20880;-66
2024/01/13 12:30:00;;;;;;;6.70;6.40;;;22.70;45.90;;;;;;5015057;28;20446;-67
2024/01/13 12:32:30;;;;;;;6.50;6.30;;;22.70;45.70;;;;;;5015541;28;20448;-68
2024/01/13 12:34:57;;;;;;;6.80;6.60;;;22.70;45.50;;;;;;5015516;28;20469;-68